Time;durP1;ratioP1;P1;durP2;ratioP2;P2;SDS_P1;SDS_P2;PMS_P1;PMS_P2;Temp;Humidity;BMP_temperature;BMP_pressure;BME280_temperature;BME280_humidity;BME280_pressure;Samples;Min_cycle;Max_cycle;Signal;HPM_P1;HPM_P2
2023/03/20 00:00:50;;;;;;;24.67;13.68;;;11.40;96.00;;;;;;4991187;28;20065;-77
2023/03/20 00:03:16;;;;;;;26.88;14.85;;;11.30;96.00;;;;;;4990482;28;20027;-77
2023/03/20 00:05:42;;;;;;;23.83;12.75;;;11.30;96.00;;;;;;4992289;28;20030;-78
2023/03/20 00:08:08;;;;;;;23.88;12.98;;;11.30;96.10;;;;;;4992481;28;20046;-78
2023/03/20 00:10:40;;;;;;;25.63;14.52;;;11.30;96.00;;;;;;4993790;28;20054;-79
2023/03/20 00:13:10;;;;;;;23.75;14.02;;;11.30;96.00;;;;;;4990259;28;20058;-78
2023/03/20 00:15:37;;;;;;;20.48;11.73;;;11.30;96.10;;;;;;4994685;28;20030;-77
2023/03/20 00:18:15;;;;;;;28.23;15.07;;;11.20;96.10;;;;;;4995672;28;20048;-77
2023/03/20 00:20:41;;;;;;;24.48;14.27;;;11.10;96.40;;;;;;4992132;28;20026;-77
2023/03/20 00:23:06;;;;;;;25.50;13.55;;;11.10;96.60;;;;;;4991763;28;20109;-78
2023/03/20 00:25:32;;;;;;;23.17;13.10;;;11.10;96.70;;;;;;4991829;28;20026;-78
2023/03/20 00:27:58;;;;;;;25.20;12.35;;;11.10;96.70;;;;;;4992107;28;20081;-78
2023/03/20 00:30:28;;;;;;;23.73;13.77;;;11.10;96.70;;;;;;4991139;28;20023;-76
2023/03/20 00:32:56;;;;;;;26.52;14.93;;;11.10;96.80;;;;;;4991486;28;20541;-80
2023/03/20 00:35:23;;;;;;;22.23;11.85;;;11.10;96.80;;;;;;4990527;28;20026;-78
2023/03/20 00:37:51;;;;;;;23.45;12.48;;;11.10;96.90;;;;;;4989646;28;20034;-78
2023/03/20 00:40:20;;;;;;;25.50;14.57;;;11.00;96.90;;;;;;4991479;28;20084;-77
2023/03/20 00:42:50;;;;;;;25.98;15.02;;;11.10;96.90;;;;;;4990001;28;20077;-78
2023/03/20 00:45:20;;;;;;;26.73;14.85;;;11.00;96.80;;;;;;4990736;28;20018;-78
2023/03/20 00:47:50;;;;;;;24.38;15.52;;;10.90;96.70;;;;;;4991061;28;20030;-78
2023/03/20 00:50:24;;;;;;;27.67;15.48;;;10.90;96.80;;;;;;4988240;28;20031;-77
2023/03/20 00:52:51;;;;;;;24.98;15.82;;;10.90;96.80;;;;;;4990151;28;20023;-77
2023/03/20 00:55:19;;;;;;;24.15;14.15;;;10.90;96.70;;;;;;4991679;28;20057;-79
2023/03/20 00:57:49;;;;;;;31.63;16.63;;;10.90;96.70;;;;;;4990559;28;20038;-78
2023/03/20 01:00:19;;;;;;;24.17;15.90;;;10.90;96.70;;;;;;4990621;28;20030;-76
2023/03/20 01:02:45;;;;;;;25.45;15.80;;;10.80;96.70;;;;;;4989926;28;20484;-78
2023/03/20 01:05:11;;;;;;;26.25;16.20;;;10.90;96.60;;;;;;4990691;28;20023;-78
2023/03/20 01:07:38;;;;;;;27.13;17.42;;;11.00;96.60;;;;;;4990707;28;20031;-79
2023/03/20 01:10:05;;;;;;;23.83;16.55;;;11.00;96.60;;;;;;4985757;28;20022;-78
2023/03/20 01:12:31;;;;;;;29.77;16.38;;;11.00;96.60;;;;;;4983629;28;20022;-79
2023/03/20 01:14:58;;;;;;;26.75;16.17;;;11.00;96.60;;;;;;4991155;28;20886;-79
2023/03/20 01:17:26;;;;;;;32.05;18.83;;;11.00;96.60;;;;;;4989792;28;20535;-79
2023/03/20 01:19:52;;;;;;;29.73;18.67;;;11.00;96.80;;;;;;4990297;28;20814;-79
2023/03/20 01:22:18;;;;;;;26.77;18.48;;;11.00;96.80;;;;;;4990910;28;20022;-78
2023/03/20 01:24:44;;;;;;;25.40;17.63;;;11.00;96.90;;;;;;4989157;28;20030;-79
2023/03/20 01:27:15;;;;;;;27.98;15.63;;;11.00;97.20;;;;;;4991204;28;20029;-80
2023/03/20 01:29:41;;;;;;;27.45;17.10;;;11.00;97.10;;;;;;4988861;28;20118;-79
2023/03/20 01:32:16;;;;;;;27.55;18.40;;;10.90;97.10;;;;;;4990608;28;20476;-79
2023/03/20 01:34:42;;;;;;;30.77;17.90;;;10.90;97.10;;;;;;4990457;28;20132;-79
2023/03/20 01:37:17;;;;;;;31.75;18.45;;;10.80;97.00;;;;;;4992774;28;20026;-79
2023/03/20 01:39:43;;;;;;;29.48;16.40;;;10.70;97.00;;;;;;4992419;28;20030;-78
2023/03/20 01:42:15;;;;;;;36.15;20.77;;;10.70;97.10;;;;;;4990882;28;20088;-80
2023/03/20 01:44:42;;;;;;;30.00;17.38;;;10.60;97.20;;;;;;4990324;28;20029;-79
2023/03/20 01:47:19;;;;;;;31.00;16.45;;;10.60;97.20;;;;;;4990262;28;20022;-79
2023/03/20 01:50:23;;;;;;;25.75;16.20;;;10.50;97.10;;;;;;4985999;28;20085;-79
2023/03/20 01:52:54;;;;;;;25.05;13.55;;;10.50;97.20;;;;;;4989935;28;20022;-80
2023/03/20 01:55:21;;;;;;;23.88;12.27;;;10.60;97.10;;;;;;4989190;28;20019;-79
2023/03/20 01:57:48;;;;;;;27.60;16.58;;;10.50;97.20;;;;;;4989636;28;20034;-79
2023/03/20 02:00:15;;;;;;;27.25;15.32;;;10.60;97.20;;;;;;4990013;28;20033;-79
2023/03/20 02:02:44;;;;;;;21.27;12.60;;;10.50;97.10;;;;;;5004353;28;20072;-78
2023/03/20 02:05:14;;;;;;;24.17;12.20;;;10.60;97.00;;;;;;4989869;28;20026;-78
2023/03/20 02:07:40;;;;;;;;;;;10.60;97.00;;;;;;4989873;28;20335;-79
2023/03/20 02:10:13;;;;;;;29.63;14.60;;;10.60;96.90;;;;;;4989444;28;19910;-79
2023/03/20 02:12:39;;;;;;;25.40;13.48;;;10.50;96.80;;;;;;4987646;28;20481;-79
2023/03/20 02:15:05;;;;;;;23.40;13.23;;;10.50;96.70;;;;;;4986817;28;20493;-78
2023/03/20 02:17:32;;;;;;;22.13;11.02;;;10.50;96.60;;;;;;4988721;28;20061;-77
2023/03/20 02:20:29;;;;;;;19.98;10.93;;;10.60;96.60;;;;;;4989870;28;20057;-78
2023/03/20 02:23:16;;;;;;;15.52;8.63;;;10.60;96.20;;;;;;4986567;28;20029;-79
2023/03/20 02:26:10;;;;;;;16.52;7.13;;;10.70;95.70;;;;;;4989058;28;20027;-81
2023/03/20 02:29:07;;;;;;;11.73;6.45;;;10.60;94.90;;;;;;4979029;28;20053;-78
2023/03/20 02:31:54;;;;;;;13.93;7.05;;;10.60;94.70;;;;;;4988553;28;20064;-79
2023/03/20 02:34:45;;;;;;;12.32;7.18;;;10.60;94.30;;;;;;4989100;28;20045;-79
2023/03/20 02:37:29;;;;;;;17.13;7.65;;;10.60;94.10;;;;;;4989567;28;20799;-80
2023/03/20 02:40:09;;;;;;;17.55;8.02;;;10.60;94.10;;;;;;4988740;28;20026;-79
2023/03/20 02:42:40;;;;;;;;;;;10.60;94.20;;;;;;4989300;28;20032;-79
2023/03/20 02:45:32;;;;;;;9.60;5.50;;;10.50;94.10;;;;;;4989700;28;20328;-79
2023/03/20 02:48:38;;;;;;;15.88;6.65;;;10.50;94.00;;;;;;4985514;28;20050;-78
2023/03/20 02:51:12;;;;;;;14.10;6.75;;;10.50;93.80;;;;;;4979968;28;20039;-77
2023/03/20 02:53:41;;;;;;;12.25;6.15;;;10.40;93.60;;;;;;4984898;28;20033;-78
2023/03/20 02:56:16;;;;;;;13.32;7.03;;;10.50;93.60;;;;;;4983608;28;20041;-78
2023/03/20 02:59:09;;;;;;;13.80;5.72;;;10.50;93.60;;;;;;4988500;28;20779;-79
2023/03/20 03:01:42;;;;;;;12.02;6.38;;;10.50;93.50;;;;;;4986936;28;20469;-77
2023/03/20 03:04:16;;;;;;;16.05;6.78;;;10.50;93.30;;;;;;4989607;28;20038;-78
2023/03/20 03:06:46;;;;;;;12.07;6.38;;;10.60;93.30;;;;;;4988856;28;20034;-77
2023/03/20 03:09:19;;;;;;;11.05;6.32;;;10.50;93.40;;;;;;4982943;28;20629;-78
2023/03/20 03:12:17;;;;;;;13.35;6.90;;;10.50;93.40;;;;;;4991391;28;20027;-78
2023/03/20 03:14:55;;;;;;;12.57;6.45;;;10.40;93.50;;;;;;4990642;28;20385;-77
2023/03/20 03:17:25;;;;;;;13.95;6.70;;;10.50;93.60;;;;;;4991967;28;20409;-79
2023/03/20 03:19:55;;;;;;;11.98;6.60;;;10.40;93.80;;;;;;4990090;28;20440;-80
2023/03/20 03:22:21;;;;;;;15.95;6.78;;;10.40;93.80;;;;;;4989692;28;20029;-76
2023/03/20 03:24:49;;;;;;;12.75;7.03;;;10.40;93.90;;;;;;4994131;28;20023;-78
2023/03/20 03:27:31;;;;;;;15.13;7.72;;;10.50;94.00;;;;;;4995012;28;20037;-78
2023/03/20 03:30:01;;;;;;;15.20;8.52;;;10.50;94.00;;;;;;4997565;28;20049;-79
2023/03/20 03:32:30;;;;;;;16.08;8.55;;;10.50;94.10;;;;;;4998056;28;20034;-78
2023/03/20 03:34:57;;;;;;;19.25;8.63;;;10.50;94.20;;;;;;4992964;28;20491;-77
2023/03/20 03:37:29;;;;;;;17.48;8.23;;;10.50;94.20;;;;;;4993212;28;20080;-78
2023/03/20 03:40:27;;;;;;;20.08;9.77;;;10.60;94.30;;;;;;4991606;28;20026;-79
2023/03/20 03:43:02;;;;;;;20.80;9.43;;;10.50;94.50;;;;;;4992888;28;20034;-79
2023/03/20 03:45:43;;;;;;;20.33;9.35;;;10.50;94.30;;;;;;4987610;28;20033;-78
2023/03/20 03:48:30;;;;;;;16.02;8.38;;;10.40;94.40;;;;;;4992366;28;20023;-78
2023/03/20 03:51:02;;;;;;;17.67;8.65;;;10.40;94.40;;;;;;4991892;28;20042;-78
2023/03/20 03:53:37;;;;;;;18.90;9.45;;;10.40;94.50;;;;;;4990982;28;20018;-79
2023/03/20 03:56:11;;;;;;;22.42;9.63;;;10.30;94.50;;;;;;4992899;28;20481;-78
2023/03/20 03:58:42;;;;;;;23.60;11.18;;;10.30;94.50;;;;;;4992298;28;20023;-78
2023/03/20 04:01:11;;;;;;;15.68;8.80;;;10.30;94.60;;;;;;4993317;28;20022;-80
2023/03/20 04:03:48;;;;;;;20.42;9.30;;;10.30;94.60;;;;;;4993037;28;20061;-79
2023/03/20 04:06:15;;;;;;;19.63;10.93;;;10.20;94.70;;;;;;4993182;28;20109;-79
2023/03/20 04:08:42;;;;;;;16.00;9.38;;;10.20;94.70;;;;;;4987224;28;20035;-79
2023/03/20 04:11:19;;;;;;;24.02;10.93;;;10.20;94.90;;;;;;4992500;28;20015;-78
2023/03/20 04:13:47;;;;;;;24.98;10.70;;;10.10;95.20;;;;;;4993306;28;20065;-78
2023/03/20 04:16:14;;;;;;;22.30;12.95;;;10.00;95.10;;;;;;4992907;28;20093;-79
2023/03/20 04:18:40;;;;;;;23.40;12.52;;;10.00;95.10;;;;;;4991873;28;20133;-78
2023/03/20 04:21:07;;;;;;;26.33;14.43;;;9.90;95.20;;;;;;4996682;28;20034;-79
2023/03/20 04:23:35;;;;;;;28.50;14.68;;;9.90;95.40;;;;;;4995130;28;20469;-79
2023/03/20 04:26:01;;;;;;;31.15;15.30;;;9.90;95.40;;;;;;4993669;28;20037;-77
2023/03/20 04:28:27;;;;;;;24.00;13.32;;;9.80;95.50;;;;;;4981658;28;20124;-79
2023/03/20 04:30:56;;;;;;;27.25;14.88;;;9.80;95.70;;;;;;4992677;28;20113;-78
2023/03/20 04:33:23;;;;;;;24.50;13.00;;;9.80;95.70;;;;;;4992726;28;20489;-77
2023/03/20 04:35:49;;;;;;;25.92;14.32;;;9.80;95.70;;;;;;4992013;28;20794;-78
2023/03/20 04:38:15;;;;;;;30.27;17.23;;;9.70;95.70;;;;;;4993117;28;20025;-79
2023/03/20 04:40:43;;;;;;;32.50;18.73;;;9.70;95.70;;;;;;4992548;28;20018;-78
2023/03/20 04:43:09;;;;;;;29.50;17.17;;;9.70;95.80;;;;;;4994750;28;20031;-79
2023/03/20 04:45:34;;;;;;;32.70;18.50;;;9.80;95.70;;;;;;4992576;28;20018;-78
2023/03/20 04:48:00;;;;;;;27.63;15.05;;;9.80;95.70;;;;;;4991593;28;20150;-80
2023/03/20 04:50:26;;;;;;;30.20;16.35;;;9.80;95.70;;;;;;4993162;28;20031;-79
2023/03/20 04:52:52;;;;;;;29.73;16.70;;;9.80;95.70;;;;;;4992865;28;20045;-77
2023/03/20 04:55:17;;;;;;;35.28;20.35;;;9.80;95.70;;;;;;4991697;28;20030;-79
2023/03/20 04:57:43;;;;;;;32.03;18.92;;;9.70;96.00;;;;;;4991598;28;20108;-79
2023/03/20 05:00:10;;;;;;;34.17;19.20;;;9.70;95.90;;;;;;4992441;28;20018;-78
2023/03/20 05:02:36;;;;;;;33.65;17.23;;;9.70;95.90;;;;;;4991846;28;20027;-78
2023/03/20 05:05:02;;;;;;;37.13;20.85;;;9.70;95.80;;;;;;4992137;28;20026;-78
2023/03/20 05:07:28;;;;;;;29.30;17.00;;;9.70;95.80;;;;;;4991806;28;20113;-79
2023/03/20 05:09:54;;;;;;;32.05;17.42;;;9.70;95.80;;;;;;4984121;28;20165;-77
2023/03/20 05:12:20;;;;;;;31.70;18.65;;;9.70;95.80;;;;;;4992300;28;20484;-78
2023/03/20 05:14:45;;;;;;;31.25;18.33;;;9.70;95.70;;;;;;4989131;28;20026;-79
2023/03/20 05:17:11;;;;;;;35.90;18.48;;;9.70;95.70;;;;;;4991968;28;20057;-77
2023/03/20 05:19:37;;;;;;;32.40;18.83;;;9.70;95.60;;;;;;4990959;28;20030;-77
2023/03/20 05:22:05;;;;;;;29.27;15.60;;;9.70;95.60;;;;;;4991880;28;20469;-79
2023/03/20 05:24:31;;;;;;;32.92;17.80;;;9.60;95.60;;;;;;4991705;28;20025;-77
2023/03/20 05:26:56;;;;;;;27.70;15.07;;;9.60;95.60;;;;;;4992322;28;20026;-78
2023/03/20 05:29:22;;;;;;;32.25;15.93;;;9.60;95.50;;;;;;4989096;28;20053;-77
2023/03/20 05:31:48;;;;;;;23.95;13.88;;;9.60;95.60;;;;;;4989826;28;20537;-79
2023/03/20 05:34:14;;;;;;;27.92;15.23;;;9.60;95.50;;;;;;4992216;28;20025;-78
2023/03/20 05:36:41;;;;;;;23.63;13.25;;;9.60;95.50;;;;;;4990687;28;20101;-78
2023/03/20 05:39:08;;;;;;;30.05;15.27;;;9.60;95.50;;;;;;4991609;28;20648;-79
2023/03/20 05:41:34;;;;;;;25.92;13.73;;;9.50;95.30;;;;;;4993058;28;20022;-78
2023/03/20 05:44:00;;;;;;;21.77;12.55;;;9.50;95.30;;;;;;4996558;28;20433;-78
2023/03/20 05:46:26;;;;;;;27.45;14.85;;;9.60;95.40;;;;;;5004382;28;20045;-78
2023/03/20 05:48:52;;;;;;;24.40;12.20;;;9.60;95.20;;;;;;5004364;28;20049;-77
2023/03/20 05:51:17;;;;;;;21.48;12.88;;;9.60;95.10;;;;;;4996363;28;20540;-79
2023/03/20 05:53:43;;;;;;;20.88;13.45;;;9.70;95.20;;;;;;4996698;28;20027;-78
2023/03/20 05:56:09;;;;;;;22.33;13.40;;;9.70;95.10;;;;;;4999781;28;20094;-77
2023/03/20 05:58:35;;;;;;;22.17;12.05;;;9.70;95.00;;;;;;4993946;28;20023;-78
2023/03/20 06:01:01;;;;;;;21.35;12.82;;;9.80;94.90;;;;;;4991113;28;20469;-78
2023/03/20 06:03:26;;;;;;;24.63;12.15;;;9.80;95.00;;;;;;4990539;28;20026;-78
2023/03/20 06:05:52;;;;;;;27.02;12.88;;;9.80;94.60;;;;;;4990811;28;20561;-77
2023/03/20 06:08:18;;;;;;;23.20;12.20;;;9.80;94.60;;;;;;4991764;28;20034;-78
2023/03/20 06:10:43;;;;;;;19.15;11.23;;;9.80;94.50;;;;;;4990718;28;20026;-79
2023/03/20 06:13:09;;;;;;;24.50;12.93;;;9.80;94.50;;;;;;4991646;28;20077;-80
2023/03/20 06:15:35;;;;;;;19.10;11.48;;;9.80;94.60;;;;;;4990948;28;20088;-77
2023/03/20 06:18:01;;;;;;;19.85;11.57;;;9.70;94.60;;;;;;4992887;28;20023;-79
2023/03/20 06:20:26;;;;;;;18.70;9.88;;;9.70;94.60;;;;;;4994821;28;20029;-79
2023/03/20 06:22:52;;;;;;;23.67;11.73;;;9.70;94.70;;;;;;4998674;28;20050;-78
2023/03/20 06:25:18;;;;;;;27.92;14.18;;;9.70;94.70;;;;;;4997639;28;20076;-78
2023/03/20 06:27:47;;;;;;;22.42;11.80;;;9.70;94.80;;;;;;4995915;28;20030;-78
2023/03/20 06:30:14;;;;;;;21.05;11.23;;;9.70;94.90;;;;;;4996620;28;20037;-78
2023/03/20 06:32:40;;;;;;;20.52;11.63;;;9.60;94.90;;;;;;4997854;28;20026;-78
2023/03/20 06:35:06;;;;;;;20.45;11.80;;;9.60;94.90;;;;;;4998265;28;20018;-79
2023/03/20 06:37:32;;;;;;;22.70;12.02;;;9.60;94.90;;;;;;4993572;28;20101;-77
2023/03/20 06:39:58;;;;;;;27.80;11.95;;;9.60;95.10;;;;;;4995479;28;20018;-78
2023/03/20 06:42:24;;;;;;;20.10;11.35;;;9.60;95.00;;;;;;4992500;28;20025;-77
2023/03/20 06:44:50;;;;;;;24.88;12.07;;;9.70;95.40;;;;;;4990866;28;20110;-77
2023/03/20 06:47:17;;;;;;;22.92;11.63;;;9.70;95.10;;;;;;4992002;28;20084;-79
2023/03/20 06:49:43;;;;;;;20.95;13.98;;;9.80;95.40;;;;;;4990393;28;20088;-79
2023/03/20 06:52:17;;;;;;;24.38;12.18;;;9.70;94.90;;;;;;4990928;28;20432;-78
2023/03/20 06:54:43;;;;;;;25.92;13.57;;;9.60;95.00;;;;;;4989842;28;20026;-79
2023/03/20 06:57:09;;;;;;;24.50;13.98;;;9.60;95.00;;;;;;4990489;28;20489;-78
2023/03/20 06:59:35;;;;;;;19.83;12.32;;;9.60;95.00;;;;;;4990237;28;20037;-79
2023/03/20 07:02:01;;;;;;;25.45;12.20;;;9.60;95.10;;;;;;4988985;28;20026;-77
2023/03/20 07:04:27;;;;;;;22.65;12.23;;;9.60;95.10;;;;;;4989631;28;20023;-78
2023/03/20 07:06:53;;;;;;;22.75;11.73;;;9.50;95.10;;;;;;4990575;28;20073;-78
2023/03/20 07:09:20;;;;;;;23.00;12.60;;;9.50;95.10;;;;;;4990143;28;20070;-78
2023/03/20 07:11:46;;;;;;;26.00;12.65;;;9.50;95.50;;;;;;4990383;28;20061;-78
2023/03/20 07:14:13;;;;;;;26.25;10.55;;;9.60;95.30;;;;;;4989515;28;20035;-79
2023/03/20 07:16:39;;;;;;;22.95;12.25;;;9.60;95.60;;;;;;4989777;28;20513;-76
2023/03/20 07:19:05;;;;;;;24.67;12.48;;;9.60;95.50;;;;;;4989906;28;20053;-77
2023/03/20 07:21:30;;;;;;;24.80;11.90;;;9.50;95.30;;;;;;4990491;28;20390;-77
2023/03/20 07:23:56;;;;;;;24.83;13.07;;;9.50;95.40;;;;;;4981576;28;20018;-78
2023/03/20 07:26:22;;;;;;;22.80;11.73;;;9.50;95.80;;;;;;4990328;28;20034;-78
2023/03/20 07:28:48;;;;;;;25.27;13.75;;;9.50;95.60;;;;;;4990030;28;20104;-77
2023/03/20 07:31:23;;;;;;;19.23;11.32;;;9.50;95.40;;;;;;4989190;28;20488;-78
2023/03/20 07:33:51;;;;;;;22.27;12.82;;;9.50;95.40;;;;;;4990816;28;20092;-79
2023/03/20 07:36:17;;;;;;;24.65;13.43;;;9.60;95.60;;;;;;4989182;28;20097;-77
2023/03/20 07:38:42;;;;;;;26.75;15.10;;;9.50;95.70;;;;;;4990085;28;20034;-78
2023/03/20 07:41:08;;;;;;;25.20;12.52;;;9.50;95.50;;;;;;4989778;28;20027;-78
2023/03/20 07:43:34;;;;;;;26.50;12.70;;;9.40;95.50;;;;;;4988282;28;20090;-78
2023/03/20 07:46:04;;;;;;;27.27;12.43;;;9.50;95.50;;;;;;4985260;28;20022;-78
2023/03/20 07:48:31;;;;;;;22.73;12.73;;;9.40;95.50;;;;;;4984168;28;20065;-78
2023/03/20 07:50:56;;;;;;;22.58;12.23;;;9.40;95.50;;;;;;5005338;28;20027;-78
2023/03/20 07:53:22;;;;;;;29.52;13.18;;;9.30;95.60;;;;;;4995618;28;20052;-78
2023/03/20 07:55:49;;;;;;;23.10;13.40;;;9.30;95.70;;;;;;4998602;28;20058;-77
2023/03/20 07:58:16;;;;;;;26.50;13.93;;;9.30;95.80;;;;;;4999323;28;20027;-78
2023/03/20 08:00:43;;;;;;;24.33;14.57;;;9.30;95.90;;;;;;4997766;28;20112;-79
2023/03/20 08:03:08;;;;;;;24.35;13.70;;;9.40;95.70;;;;;;5017282;28;20023;-79
2023/03/20 08:05:34;;;;;;;25.60;12.18;;;9.40;95.90;;;;;;5000655;28;20026;-78
2023/03/20 08:08:00;;;;;;;20.65;11.85;;;9.40;95.60;;;;;;4997831;28;20042;-77
2023/03/20 08:10:26;;;;;;;23.88;11.40;;;9.50;95.50;;;;;;5004118;28;20057;-78
2023/03/20 08:12:52;;;;;;;21.10;11.55;;;9.50;95.40;;;;;;4991964;28;20080;-78
2023/03/20 08:15:17;;;;;;;19.27;12.00;;;9.50;95.30;;;;;;4991390;28;20022;-78
2023/03/20 08:17:44;;;;;;;27.98;12.60;;;9.50;95.30;;;;;;4990950;28;20046;-78
2023/03/20 08:20:11;;;;;;;23.60;10.93;;;9.40;95.40;;;;;;4989893;28;20211;-79
2023/03/20 08:22:37;;;;;;;18.45;10.70;;;9.40;95.40;;;;;;4990424;28;20058;-78
2023/03/20 08:25:03;;;;;;;22.10;11.63;;;9.50;95.30;;;;;;4992246;28;20487;-76
2023/03/20 08:27:29;;;;;;;25.65;11.38;;;9.40;95.20;;;;;;4993657;28;20022;-76
2023/03/20 08:29:55;;;;;;;23.13;11.07;;;9.50;95.40;;;;;;4993312;28;20368;-78
2023/03/20 08:32:21;;;;;;;20.17;10.95;;;9.50;95.30;;;;;;4993173;28;20487;-77
2023/03/20 08:34:47;;;;;;;24.63;11.45;;;9.40;95.20;;;;;;4993128;28;20026;-77
2023/03/20 08:37:12;;;;;;;20.42;10.75;;;9.40;95.30;;;;;;4993346;28;20022;-78
2023/03/20 08:39:39;;;;;;;17.45;9.57;;;9.50;95.20;;;;;;4992030;28;20056;-78
2023/03/20 08:42:06;;;;;;;20.52;10.40;;;9.50;95.30;;;;;;4990850;28;20073;-77
2023/03/20 08:44:31;;;;;;;22.55;10.13;;;9.60;95.10;;;;;;4992218;28;20030;-77
2023/03/20 08:46:57;;;;;;;23.27;10.45;;;9.60;95.00;;;;;;4991519;28;20096;-75
2023/03/20 08:49:24;;;;;;;20.27;8.82;;;;;;;;;;4987837;28;20026;-76
2023/03/20 08:51:50;;;;;;;19.65;10.60;;;;;;;;;;5007317;28;20572;-76
2023/03/20 08:54:17;;;;;;;24.63;10.55;;;;;;;;;;4992539;28;20023;-76
2023/03/20 08:56:44;;;;;;;22.05;9.50;;;;;;;;;;4992427;28;20030;-78
2023/03/20 08:59:10;;;;;;;21.52;9.90;;;;;;;;;;4990240;28;20065;-75
2023/03/20 09:01:42;;;;;;;22.15;9.25;;;;;;;;;;4991467;28;20507;-79
2023/03/20 09:04:09;;;;;;;18.95;9.30;;;;;;;;;;4991958;28;20050;-76
2023/03/20 09:06:36;;;;;;;20.88;10.15;;;;;;;;;;4992517;28;20025;-78
2023/03/20 09:09:02;;;;;;;23.95;10.90;;;;;;;;;;4991694;28;20046;-78
2023/03/20 09:11:29;;;;;;;17.83;8.93;;;;;;;;;;4990128;28;20084;-77
2023/03/20 09:13:55;;;;;;;17.98;8.57;;;;;;;;;;4991894;28;20023;-77
2023/03/20 09:16:21;;;;;;;14.15;7.68;;;;;;;;;;4988147;28;20043;-78
2023/03/20 09:18:47;;;;;;;16.02;8.10;;;;;;;;;;4989253;28;20038;-78
2023/03/20 09:21:13;;;;;;;16.75;9.13;;;;;;;;;;5004464;28;20065;-78
2023/03/20 09:23:39;;;;;;;17.77;8.32;;;;;;;;;;5004848;28;20337;-78
2023/03/20 09:26:06;;;;;;;16.90;7.93;;;;;;;;;;4990875;28;20022;-77
2023/03/20 09:28:32;;;;;;;21.13;7.80;;;;;;;;;;4990558;28;20030;-76
2023/03/20 09:30:59;;;;;;;21.70;7.65;;;;;;;;;;4995532;28;20540;-80
2023/03/20 09:33:25;;;;;;;14.88;7.40;;;;;;;;;;4990939;28;20018;-79
2023/03/20 09:35:52;;;;;;;16.05;7.47;;;;;;;;;;4994412;28;20034;-79
2023/03/20 09:38:18;;;;;;;17.48;6.70;;;;;;;;;;4990367;28;20022;-79
2023/03/20 09:40:51;;;;;;;30.08;7.10;;;;;;;;;;4991100;28;20065;-79
2023/03/20 09:43:33;;;;;;;16.80;7.30;;;;;;;;;;4992979;28;20029;-78
2023/03/20 09:46:14;;;;;;;12.82;6.47;;;;;;;;;;4994147;28;20021;-77
2023/03/20 09:48:48;;;;;;;14.05;5.88;;;;;;;;;;4989004;28;20034;-75
2023/03/20 09:51:27;;;;;;;15.52;6.53;;;;;;;;;;4986740;28;20046;-76
2023/03/20 09:53:59;;;;;;;17.30;8.05;;;;;;;;;;4972827;28;20034;-77
2023/03/20 09:56:26;;;;;;;16.48;7.53;;;;;;;;;;4991277;28;20109;-79
2023/03/20 09:58:56;;;;;;;18.10;8.00;;;;;;;;;;4987281;28;20026;-76
2023/03/20 10:01:49;;;;;;;15.70;7.05;;;;;;;;;;4987382;28;20095;-79
2023/03/20 10:04:15;;;;;;;18.88;7.97;;;;;;;;;;4995658;28;20069;-77
2023/03/20 10:06:41;;;;;;;16.35;6.40;;;;;;;;;;4998196;28;20291;-80
2023/03/20 10:09:15;;;;;;;16.88;8.23;;;;;;;;;;4999216;28;20116;-76
2023/03/20 10:12:00;;;;;;;22.15;8.50;;;;;;;;;;4993756;28;20031;-76
2023/03/20 10:14:45;;;;;;;20.17;7.70;;;;;;;;;;5004238;28;20026;-76
2023/03/20 10:17:18;;;;;;;18.73;7.95;;;;;;;;;;5007208;28;20046;-76
2023/03/20 10:19:44;;;;;;;14.77;7.32;;;;;;;;;;5004608;28;20097;-75
2023/03/20 10:22:32;;;;;;;13.73;6.88;;;;;;;;;;4981087;28;20026;-77
2023/03/20 10:25:02;;;;;;;15.70;6.78;;;;;;;;;;5002669;28;20081;-78
2023/03/20 10:27:32;;;;;;;13.70;6.70;;;;;;;;;;4979819;28;20033;-78
2023/03/20 10:30:17;;;;;;;15.45;7.57;;;;;;;;;;4987396;28;20023;-78
2023/03/20 10:33:00;;;;;;;19.52;8.75;;;;;;;;;;4982331;28;20041;-74
2023/03/20 10:35:31;;;;;;;18.35;6.97;;;;;;;;;;4984457;28;20022;-78
2023/03/20 10:38:12;;;;;;;17.77;8.02;;;;;;;;;;4990748;28;20034;-76
2023/03/20 10:40:40;;;;;;;16.70;7.30;;;;;;;;;;4994395;28;20030;-75
2023/03/20 10:43:16;;;;;;;18.38;7.28;;;;;;;;;;4992177;28;20035;-75
2023/03/20 10:45:47;;;;;;;13.38;5.50;;;;;;;;;;4985451;28;20041;-76
2023/03/20 10:48:34;;;;;;;13.85;5.22;;;;;;;;;;4987949;28;20038;-75
2023/03/20 10:51:01;;;;;;;11.98;4.43;;;;;;;;;;4984674;28;20057;-75
2023/03/20 10:53:30;;;;;;;14.80;5.60;;;;;;;;;;4987693;28;20037;-75
2023/03/20 10:55:58;;;;;;;12.20;5.28;;;;;;;;;;4989164;28;20098;-75
2023/03/20 10:58:31;;;;;;;10.45;4.80;;;;;;;;;;4990020;28;20030;-75
2023/03/20 11:00:58;;;;;;;11.77;4.80;;;;;;;;;;4990907;28;20042;-74
2023/03/20 11:03:28;;;;;;;11.07;4.88;;;;;;;;;;4991357;28;20069;-75
2023/03/20 11:05:59;;;;;;;18.33;4.82;;;;;;;;;;4990833;28;20374;-75
2023/03/20 11:08:29;;;;;;;14.27;5.05;;;;;;;;;;4992169;28;20038;-75
2023/03/20 11:11:00;;;;;;;12.93;5.00;;;;;;;;;;4985804;28;20122;-74
2023/03/20 11:13:36;;;;;;;12.93;5.43;;;;;;;;;;4987713;28;20105;-75
2023/03/20 11:16:12;;;;;;;12.73;4.97;;;;;;;;;;4991199;28;20425;-76
2023/03/20 11:18:40;;;;;;;10.85;4.63;;;;;;;;;;4991474;28;20030;-75
2023/03/20 11:21:13;;;;;;;15.18;5.13;;;;;;;;;;4992488;28;20057;-76
2023/03/20 11:23:39;;;;;;;13.52;4.68;;;;;;;;;;4992041;28;20385;-75
2023/03/20 11:26:07;;;;;;;18.85;5.43;;;;;;;;;;4993154;28;20042;-76
2023/03/20 11:28:37;;;;;;;14.45;5.18;;;;;;;;;;5012949;28;20109;-75
2023/03/20 11:31:15;;;;;;;12.93;5.35;;;;;;;;;;4996401;28;20443;-74
2023/03/20 11:33:45;;;;;;;19.08;5.20;;;;;;;;;;4992454;28;20280;-75
2023/03/20 11:36:11;;;;;;;;;;;;;;;;;;4988043;28;20026;-76
2023/03/20 11:38:42;;;;;;;12.55;5.20;;;;;;;;;;4995231;28;19913;-75
2023/03/20 11:41:24;;;;;;;11.13;3.63;;;;;;;;;;4997749;28;20084;-75
2023/03/20 11:43:50;;;;;;;18.00;5.88;;;;;;;;;;4997050;28;20503;-75
2023/03/20 11:46:16;;;;;;;11.02;4.70;;;;;;;;;;4996216;28;20030;-75
2023/03/20 11:48:47;;;;;;;15.23;4.90;;;;;;;;;;4996036;28;20070;-75
2023/03/20 11:51:18;;;;;;;13.98;4.93;;;;;;;;;;4997968;28;20489;-75
2023/03/20 11:53:47;;;;;;;12.10;4.50;;;;;;;;;;4996406;28;20029;-76
2023/03/20 11:56:27;;;;;;;12.05;3.88;;;;;;;;;;4990993;28;20071;-75
2023/03/20 11:59:12;;;;;;;13.13;5.18;;;;;;;;;;4990355;28;20030;-76
2023/03/20 12:01:43;;;;;;;11.18;5.50;;;;;;;;;;4995081;28;20030;-76
2023/03/20 12:04:15;;;;;;;13.45;5.40;;;;;;;;;;4995532;28;20058;-76
2023/03/20 12:06:48;;;;;;;11.05;4.65;;;;;;;;;;4994916;28;20026;-75
2023/03/20 12:09:25;;;;;;;14.88;5.85;;;;;;;;;;5007555;28;20088;-76
2023/03/20 12:11:54;;;;;;;12.30;5.60;;;;;;;;;;5012119;28;20030;-76
2023/03/20 12:14:23;;;;;;;13.25;5.78;;;;;;;;;;4999427;28;20049;-76
2023/03/20 12:16:52;;;;;;;17.05;6.22;;;;;;;;;;4998918;28;20066;-75
2023/03/20 12:19:20;;;;;;;18.23;4.82;;;;;;;;;;4988380;28;20493;-74
2023/03/20 12:21:51;;;;;;;16.23;6.75;;;;;;;;;;4994556;28;20057;-75
2023/03/20 12:24:29;;;;;;;14.05;4.93;;;;;;;;;;4992458;28;20393;-75
2023/03/20 12:27:05;;;;;;;22.38;6.82;;;;;;;;;;4993632;28;20018;-72
2023/03/20 12:29:54;;;;;;;17.73;6.13;;;;;;;;;;5011948;28;20038;-75
2023/03/20 12:32:26;;;;;;;16.57;5.87;;;;;;;;;;4992091;28;20493;-75
2023/03/20 12:35:10;;;;;;;14.85;6.78;;;;;;;;;;4993171;28;20042;-74
2023/03/20 12:37:36;;;;;;;15.13;5.85;;;;;;;;;;4994396;28;20029;-75
2023/03/20 12:40:03;;;;;;;17.55;7.28;;;10.90;94.00;;;;;;4992752;28;20045;-74
2023/03/20 12:42:41;;;;;;;16.05;6.07;;;11.00;94.10;;;;;;4992509;28;20117;-75
2023/03/20 12:45:11;;;;;;;14.02;5.95;;;10.90;94.50;;;;;;4991559;28;20038;-75
2023/03/20 12:48:08;;;;;;;18.52;7.55;;;10.90;94.80;;;;;;4993129;28;20026;-76
2023/03/20 12:51:08;;;;;;;23.95;7.60;;;11.00;94.60;;;;;;4992449;28;20029;-75
2023/03/20 12:53:53;;;;;;;20.65;9.00;;;11.00;94.80;;;;;;4992051;28;20113;-74
2023/03/20 12:56:30;;;;;;;56.20;21.05;;;11.10;94.70;;;;;;4990679;28;20022;-74
2023/03/20 12:59:00;;;;;;;34.22;15.10;;;11.00;94.80;;;;;;4973683;28;20463;-75
2023/03/20 13:01:44;;;;;;;25.33;10.55;;;11.00;94.90;;;;;;4992811;28;20957;-75
2023/03/20 13:04:21;;;;;;;29.13;12.40;;;11.00;95.10;;;;;;4989065;28;20030;-75
2023/03/20 13:07:01;;;;;;;21.85;10.52;;;11.00;95.10;;;;;;4992683;28;20065;-75
2023/03/20 13:09:52;;;;;;;21.65;9.60;;;10.90;94.80;;;;;;4992229;28;20034;-75
2023/03/20 13:12:37;;;;;;;24.00;9.48;;;10.90;95.10;;;;;;4992542;28;20595;-75
2023/03/20 13:15:21;;;;;;;20.92;9.82;;;11.00;95.10;;;;;;4992874;28;20026;-74
2023/03/20 13:18:25;;;;;;;20.85;8.80;;;11.00;95.40;;;;;;4989352;28;20054;-75
2023/03/20 13:20:55;;;;;;;20.77;9.68;;;10.90;95.70;;;;;;4992229;28;20049;-74
2023/03/20 13:23:50;;;;;;;23.55;8.80;;;10.90;95.80;;;;;;4986460;28;20030;-74